sensor_id;sensor_type;location;lat;lon;timestamp;pressure;altitude;pressure_sealevel;temperature;humidity
23303;BME280;11820;48.738;9.092;2024-02-21T00:01:24;97278.44;;;7.29;100.00
23303;BME280;11820;48.738;9.092;2024-02-21T00:03:49;97282.38;;;7.41;100.00
23303;BME280;11820;48.738;9.092;2024-02-21T00:06:14;97275.56;;;7.32;100.00
23303;BME280;11820;48.738;9.092;2024-02-21T00:08:40;97277.75;;;7.27;100.00
23303;BME280;11820;48.738;9.092;2024-02-21T00:11:05;97274.06;;;7.30;100.00
23303;BME280;11820;48.738;9.092;2024-02-21T00:13:30;97269.75;;;7.30;100.00
23303;BME280;11820;48.738;9.092;2024-02-21T00:15:56;97271.28;;;7.23;100.00
23303;BME280;11820;48.738;9.092;2024-02-21T00:18:21;97274.59;;;7.33;100.00
23303;BME280;11820;48.738;9.092;2024-02-21T00:20:47;97274.13;;;7.38;100.00
23303;BME280;11820;48.738;9.092;2024-02-21T00:23:12;97263.56;;;7.23;100.00
23303;BME280;11820;48.738;9.092;2024-02-21T00:25:37;97262.53;;;7.16;100.00
23303;BME280;11820;48.738;9.092;2024-02-21T00:28:03;97248.94;;;7.24;100.00
23303;BME280;11820;48.738;9.092;2024-02-21T00:30:28;97242.69;;;7.26;100.00
23303;BME280;11820;48.738;9.092;2024-02-21T00:32:54;97239.53;;;7.32;100.00
23303;BME280;11820;48.738;9.092;2024-02-21T00:35:19;97243.28;;;7.20;100.00
23303;BME280;11820;48.738;9.092;2024-02-21T00:37:44;97244.03;;;7.30;100.00
23303;BME280;11820;48.738;9.092;2024-02-21T00:40:10;97236.97;;;7.32;100.00
23303;BME280;11820;48.738;9.092;2024-02-21T00:42:36;97239.03;;;7.29;100.00
23303;BME280;11820;48.738;9.092;2024-02-21T00:45:01;97235.06;;;7.34;100.00
23303;BME280;11820;48.738;9.092;2024-02-21T00:47:26;97235.44;;;7.22;100.00
23303;BME280;11820;48.738;9.092;2024-02-21T00:49:52;97237.53;;;7.26;100.00
23303;BME280;11820;48.738;9.092;2024-02-21T00:52:17;97230.50;;;7.28;100.00
23303;BME280;11820;48.738;9.092;2024-02-21T00:54:43;97236.03;;;7.16;100.00
23303;BME280;11820;48.738;9.092;2024-02-21T00:57:08;97224.56;;;7.10;100.00
23303;BME280;11820;48.738;9.092;2024-02-21T00:59:33;97216.91;;;7.18;100.00
23303;BME280;11820;48.738;9.092;2024-02-21T01:01:59;97223.22;;;7.24;100.00
23303;BME280;11820;48.738;9.092;2024-02-21T01:04:24;97218.56;;;7.27;100.00
23303;BME280;11820;48.738;9.092;2024-02-21T01:06:50;97219.72;;;7.07;100.00
23303;BME280;11820;48.738;9.092;2024-02-21T01:09:15;97220.69;;;7.06;100.00
23303;BME280;11820;48.738;9.092;2024-02-21T01:11:40;97205.41;;;7.05;100.00
23303;BME280;11820;48.738;9.092;2024-02-21T01:14:05;97199.28;;;7.06;100.00
23303;BME280;11820;48.738;9.092;2024-02-21T01:16:31;97195.63;;;7.08;100.00
23303;BME280;11820;48.738;9.092;2024-02-21T01:18:56;97192.81;;;7.19;100.00
23303;BME280;11820;48.738;9.092;2024-02-21T01:21:21;97184.81;;;7.05;100.00
23303;BME280;11820;48.738;9.092;2024-02-21T01:23:47;97177.94;;;7.05;100.00
23303;BME280;11820;48.738;9.092;2024-02-21T01:26:12;97180.25;;;7.16;100.00
23303;BME280;11820;48.738;9.092;2024-02-21T01:28:40;97176.13;;;7.23;100.00
23303;BME280;11820;48.738;9.092;2024-02-21T01:31:06;97170.28;;;7.13;100.00
23303;BME280;11820;48.738;9.092;2024-02-21T01:33:31;97167.56;;;7.15;100.00
23303;BME280;11820;48.738;9.092;2024-02-21T01:36:06;97165.16;;;7.21;100.00
23303;BME280;11820;48.738;9.092;2024-02-21T01:38:32;97161.59;;;7.14;100.00
23303;BME280;11820;48.738;9.092;2024-02-21T01:40:58;97158.25;;;6.96;100.00
23303;BME280;11820;48.738;9.092;2024-02-21T01:43:23;97154.94;;;7.04;100.00
23303;BME280;11820;48.738;9.092;2024-02-21T01:45:50;97156.59;;;7.13;100.00
23303;BME280;11820;48.738;9.092;2024-02-21T01:48:17;97151.09;;;7.08;100.00
23303;BME280;11820;48.738;9.092;2024-02-21T01:50:44;97139.41;;;7.13;100.00
23303;BME280;11820;48.738;9.092;2024-02-21T01:53:10;97144.50;;;7.05;100.00
23303;BME280;11820;48.738;9.092;2024-02-21T01:55:43;97139.19;;;7.07;100.00
23303;BME280;11820;48.738;9.092;2024-02-21T01:58:08;97125.56;;;7.06;100.00
23303;BME280;11820;48.738;9.092;2024-02-21T02:00:34;97124.72;;;7.06;100.00
23303;BME280;11820;48.738;9.092;2024-02-21T02:03:00;97123.78;;;7.07;100.00
23303;BME280;11820;48.738;9.092;2024-02-21T02:05:26;97119.16;;;7.10;100.00
23303;BME280;11820;48.738;9.092;2024-02-21T02:07:52;97117.75;;;7.16;100.00
23303;BME280;11820;48.738;9.092;2024-02-21T02:10:17;97111.66;;;7.17;100.00
23303;BME280;11820;48.738;9.092;2024-02-21T02:12:42;97110.69;;;7.18;100.00
23303;BME280;11820;48.738;9.092;2024-02-21T02:15:08;97110.88;;;6.99;100.00
23303;BME280;11820;48.738;9.092;2024-02-21T02:17:33;97110.59;;;7.10;100.00
23303;BME280;11820;48.738;9.092;2024-02-21T02:19:59;97103.00;;;7.00;100.00
23303;BME280;11820;48.738;9.092;2024-02-21T02:22:28;97093.75;;;7.07;100.00
23303;BME280;11820;48.738;9.092;2024-02-21T02:24:54;97084.72;;;7.03;100.00
23303;BME280;11820;48.738;9.092;2024-02-21T02:27:20;97087.97;;;6.88;100.00
23303;BME280;11820;48.738;9.092;2024-02-21T02:29:45;97082.28;;;7.02;100.00
23303;BME280;11820;48.738;9.092;2024-02-21T02:32:10;97086.34;;;7.04;100.00
23303;BME280;11820;48.738;9.092;2024-02-21T02:34:36;97088.69;;;6.98;100.00
23303;BME280;11820;48.738;9.092;2024-02-21T02:37:01;97081.63;;;7.00;100.00
23303;BME280;11820;48.738;9.092;2024-02-21T02:39:26;97077.75;;;6.96;100.00
23303;BME280;11820;48.738;9.092;2024-02-21T02:41:51;97070.75;;;6.80;100.00
23303;BME280;11820;48.738;9.092;2024-02-21T02:44:17;97070.84;;;6.96;100.00
23303;BME280;11820;48.738;9.092;2024-02-21T02:46:42;97071.19;;;7.01;100.00
23303;BME280;11820;48.738;9.092;2024-02-21T02:49:08;97063.78;;;6.98;100.00
23303;BME280;11820;48.738;9.092;2024-02-21T02:51:34;97063.19;;;7.04;100.00
23303;BME280;11820;48.738;9.092;2024-02-21T02:53:59;97060.91;;;7.01;100.00
23303;BME280;11820;48.738;9.092;2024-02-21T02:56:24;97051.88;;;6.97;100.00
23303;BME280;11820;48.738;9.092;2024-02-21T02:58:49;97042.91;;;7.01;100.00
23303;BME280;11820;48.738;9.092;2024-02-21T03:01:15;97032.34;;;7.04;100.00
23303;BME280;11820;48.738;9.092;2024-02-21T03:03:40;97020.44;;;7.03;100.00
23303;BME280;11820;48.738;9.092;2024-02-21T03:06:05;97018.13;;;6.92;100.00
23303;BME280;11820;48.738;9.092;2024-02-21T03:08:31;97018.84;;;6.77;100.00
23303;BME280;11820;48.738;9.092;2024-02-21T03:10:57;97025.63;;;6.86;100.00
23303;BME280;11820;48.738;9.092;2024-02-21T03:13:23;97016.00;;;6.88;100.00
23303;BME280;11820;48.738;9.092;2024-02-21T03:15:48;97018.47;;;6.72;100.00
23303;BME280;11820;48.738;9.092;2024-02-21T03:18:13;97040.44;;;6.66;100.00
23303;BME280;11820;48.738;9.092;2024-02-21T03:20:38;97036.78;;;6.69;100.00
23303;BME280;11820;48.738;9.092;2024-02-21T03:23:04;97030.22;;;6.74;100.00
23303;BME280;11820;48.738;9.092;2024-02-21T03:25:29;97029.00;;;6.86;100.00
23303;BME280;11820;48.738;9.092;2024-02-21T03:27:54;97028.16;;;7.03;100.00
23303;BME280;11820;48.738;9.092;2024-02-21T03:30:20;97022.66;;;6.98;100.00
23303;BME280;11820;48.738;9.092;2024-02-21T03:32:45;97022.81;;;6.97;100.00
23303;BME280;11820;48.738;9.092;2024-02-21T03:35:11;97018.00;;;7.02;100.00
23303;BME280;11820;48.738;9.092;2024-02-21T03:37:36;97018.44;;;6.89;100.00
23303;BME280;11820;48.738;9.092;2024-02-21T03:40:01;97013.00;;;7.00;100.00
23303;BME280;11820;48.738;9.092;2024-02-21T03:42:27;97010.16;;;6.78;100.00
23303;BME280;11820;48.738;9.092;2024-02-21T03:44:55;97004.88;;;6.79;100.00
23303;BME280;11820;48.738;9.092;2024-02-21T03:47:20;97003.94;;;6.80;100.00
23303;BME280;11820;48.738;9.092;2024-02-21T03:49:45;97005.69;;;6.80;100.00
23303;BME280;11820;48.738;9.092;2024-02-21T03:52:10;97004.63;;;6.90;100.00
23303;BME280;11820;48.738;9.092;2024-02-21T03:54:36;97011.00;;;6.78;100.00
23303;BME280;11820;48.738;9.092;2024-02-21T03:57:01;97006.53;;;6.88;100.00
23303;BME280;11820;48.738;9.092;2024-02-21T03:59:27;97003.94;;;6.80;100.00
23303;BME280;11820;48.738;9.092;2024-02-21T04:01:53;97011.25;;;6.75;100.00
23303;BME280;11820;48.738;9.092;2024-02-21T04:04:19;96998.69;;;6.64;100.00
23303;BME280;11820;48.738;9.092;2024-02-21T04:06:50;96988.59;;;6.71;100.00
23303;BME280;11820;48.738;9.092;2024-02-21T04:09:16;96980.47;;;6.58;100.00
23303;BME280;11820;48.738;9.092;2024-02-21T04:11:42;96982.25;;;6.57;100.00
23303;BME280;11820;48.738;9.092;2024-02-21T04:14:07;96978.09;;;6.56;100.00
23303;BME280;11820;48.738;9.092;2024-02-21T04:16:34;96981.34;;;6.66;100.00
23303;BME280;11820;48.738;9.092;2024-02-21T04:18:59;96982.25;;;6.57;100.00
23303;BME280;11820;48.738;9.092;2024-02-21T04:21:25;96963.63;;;6.55;100.00
23303;BME280;11820;48.738;9.092;2024-02-21T04:23:50;96957.84;;;6.53;100.00
23303;BME280;11820;48.738;9.092;2024-02-21T04:26:15;96952.88;;;6.60;100.00
23303;BME280;11820;48.738;9.092;2024-02-21T04:28:41;96967.50;;;6.59;100.00
23303;BME280;11820;48.738;9.092;2024-02-21T04:31:06;96974.78;;;6.46;100.00
23303;BME280;11820;48.738;9.092;2024-02-21T04:33:32;96973.22;;;6.28;100.00
23303;BME280;11820;48.738;9.092;2024-02-21T04:35:57;96962.25;;;6.43;100.00
23303;BME280;11820;48.738;9.092;2024-02-21T04:38:23;96955.53;;;6.50;100.00
23303;BME280;11820;48.738;9.092;2024-02-21T04:40:49;96953.44;;;6.46;100.00
23303;BME280;11820;48.738;9.092;2024-02-21T04:43:14;96951.03;;;6.44;100.00
23303;BME280;11820;48.738;9.092;2024-02-21T04:45:39;96955.53;;;6.50;100.00
23303;BME280;11820;48.738;9.092;2024-02-21T04:48:05;96965.25;;;6.56;100.00
23303;BME280;11820;48.738;9.092;2024-02-21T04:50:30;96959.19;;;6.40;100.00
23303;BME280;11820;48.738;9.092;2024-02-21T04:52:55;96952.72;;;6.36;100.00
23303;BME280;11820;48.738;9.092;2024-02-21T04:55:21;96951.59;;;6.31;100.00
23303;BME280;11820;48.738;9.092;2024-02-21T04:57:46;96950.66;;;6.39;100.00
23303;BME280;11820;48.738;9.092;2024-02-21T05:00:11;96947.88;;;6.33;100.00
23303;BME280;11820;48.738;9.092;2024-02-21T05:02:37;96951.63;;;6.38;100.00
23303;BME280;11820;48.738;9.092;2024-02-21T05:05:02;96956.81;;;6.21;100.00
23303;BME280;11820;48.738;9.092;2024-02-21T05:07:28;96958.84;;;6.18;100.00
23303;BME280;11820;48.738;9.092;2024-02-21T05:09:53;96961.50;;;6.08;100.00
23303;BME280;11820;48.738;9.092;2024-02-21T05:12:18;96965.50;;;6.03;100.00
23303;BME280;11820;48.738;9.092;2024-02-21T05:14:44;96972.00;;;6.15;100.00
23303;BME280;11820;48.738;9.092;2024-02-21T05:17:09;96969.72;;;6.12;100.00
23303;BME280;11820;48.738;9.092;2024-02-21T05:19:34;96958.50;;;6.13;100.00
23303;BME280;11820;48.738;9.092;2024-02-21T05:21:59;96955.94;;;6.13;100.00
23303;BME280;11820;48.738;9.092;2024-02-21T05:24:25;96950.28;;;6.09;100.00
23303;BME280;11820;48.738;9.092;2024-02-21T05:26:51;96932.09;;;6.20;100.00
23303;BME280;11820;48.738;9.092;2024-02-21T05:29:16;96926.13;;;6.20;100.00
23303;BME280;11820;48.738;9.092;2024-02-21T05:34:16;96921.00;;;6.20;100.00
23303;BME280;11820;48.738;9.092;2024-02-21T05:36:42;96920.81;;;6.13;100.00
23303;BME280;11820;48.738;9.092;2024-02-21T05:39:07;96920.34;;;6.18;100.00
23303;BME280;11820;48.738;9.092;2024-02-21T05:41:32;96906.91;;;6.24;100.00
23303;BME280;11820;48.738;9.092;2024-02-21T05:43:58;96907.03;;;6.14;100.00
23303;BME280;11820;48.738;9.092;2024-02-21T05:46:23;96900.94;;;6.15;100.00
23303;BME280;11820;48.738;9.092;2024-02-21T05:48:48;96899.56;;;6.29;100.00
23303;BME280;11820;48.738;9.092;2024-02-21T05:51:13;96897.44;;;6.24;100.00
23303;BME280;11820;48.738;9.092;2024-02-21T05:53:40;96900.22;;;6.31;100.00
23303;BME280;11820;48.738;9.092;2024-02-21T05:56:10;96892.22;;;6.34;100.00
23303;BME280;11820;48.738;9.092;2024-02-21T05:58:36;96891.06;;;6.28;100.00
23303;BME280;11820;48.738;9.092;2024-02-21T06:01:01;96892.19;;;6.26;100.00
23303;BME280;11820;48.738;9.092;2024-02-21T06:03:29;96891.00;;;6.20;100.00
23303;BME280;11820;48.738;9.092;2024-02-21T06:05:54;96894.06;;;6.24;100.00
23303;BME280;11820;48.738;9.092;2024-02-21T06:08:19;96897.75;;;6.21;100.00
23303;BME280;11820;48.738;9.092;2024-02-21T06:10:45;96904.84;;;6.27;100.00
23303;BME280;11820;48.738;9.092;2024-02-21T06:13:11;96901.63;;;6.25;100.00
23303;BME280;11820;48.738;9.092;2024-02-21T06:15:36;96900.47;;;6.20;100.00
23303;BME280;11820;48.738;9.092;2024-02-21T06:18:01;96886.34;;;6.24;100.00
23303;BME280;11820;48.738;9.092;2024-02-21T06:20:27;96885.66;;;6.14;100.00
23303;BME280;11820;48.738;9.092;2024-02-21T06:22:53;96891.41;;;6.08;100.00
23303;BME280;11820;48.738;9.092;2024-02-21T06:25:20;96883.75;;;6.16;100.00
23303;BME280;11820;48.738;9.092;2024-02-21T06:27:45;96891.84;;;6.03;100.00
23303;BME280;11820;48.738;9.092;2024-02-21T06:30:11;96889.81;;;6.07;100.00
23303;BME280;11820;48.738;9.092;2024-02-21T06:32:36;96903.91;;;6.03;100.00
23303;BME280;11820;48.738;9.092;2024-02-21T06:35:03;96901.69;;;6.08;100.00
23303;BME280;11820;48.738;9.092;2024-02-21T06:37:29;96911.84;;;6.17;100.00
23303;BME280;11820;48.738;9.092;2024-02-21T06:39:55;96912.44;;;6.11;100.00
23303;BME280;11820;48.738;9.092;2024-02-21T06:42:20;96915.06;;;6.19;100.00
23303;BME280;11820;48.738;9.092;2024-02-21T06:44:46;96912.41;;;6.29;100.00
23303;BME280;11820;48.738;9.092;2024-02-21T06:47:12;96910.94;;;6.26;100.00
23303;BME280;11820;48.738;9.092;2024-02-21T06:49:37;96911.16;;;6.33;100.00
23303;BME280;11820;48.738;9.092;2024-02-21T06:52:04;96909.34;;;6.25;100.00
23303;BME280;11820;48.738;9.092;2024-02-21T06:54:30;96897.03;;;6.37;100.00
23303;BME280;11820;48.738;9.092;2024-02-21T06:56:55;96894.38;;;6.21;100.00
23303;BME280;11820;48.738;9.092;2024-02-21T06:59:21;96891.50;;;6.24;100.00
23303;BME280;11820;48.738;9.092;2024-02-21T07:01:48;96890.31;;;6.36;100.00
23303;BME280;11820;48.738;9.092;2024-02-21T07:04:14;96897.56;;;6.40;100.00
23303;BME280;11820;48.738;9.092;2024-02-21T07:06:40;96899.34;;;6.47;100.00
23303;BME280;11820;48.738;9.092;2024-02-21T07:09:05;96895.97;;;6.47;100.00
23303;BME280;11820;48.738;9.092;2024-02-21T07:11:30;96882.97;;;6.48;100.00
23303;BME280;11820;48.738;9.092;2024-02-21T07:13:56;96883.63;;;6.50;100.00
23303;BME280;11820;48.738;9.092;2024-02-21T07:16:21;96883.78;;;6.49;100.00
23303;BME280;11820;48.738;9.092;2024-02-21T07:18:46;96881.78;;;6.68;100.00
23303;BME280;11820;48.738;9.092;2024-02-21T07:21:12;96889.41;;;6.86;100.00
23303;BME280;11820;48.738;9.092;2024-02-21T07:23:41;96883.94;;;6.89;100.00
23303;BME280;11820;48.738;9.092;2024-02-21T07:26:07;96878.00;;;6.80;100.00
23303;BME280;11820;48.738;9.092;2024-02-21T07:28:32;96881.16;;;6.74;100.00
23303;BME280;11820;48.738;9.092;2024-02-21T07:30:59;96879.41;;;6.67;100.00
23303;BME280;11820;48.738;9.092;2024-02-21T07:33:24;96879.84;;;6.62;100.00
23303;BME280;11820;48.738;9.092;2024-02-21T07:35:50;96872.16;;;6.70;100.00
23303;BME280;11820;48.738;9.092;2024-02-21T07:38:15;96864.13;;;6.73;100.00
23303;BME280;11820;48.738;9.092;2024-02-21T07:40:44;96859.19;;;6.72;100.00
23303;BME280;11820;48.738;9.092;2024-02-21T07:43:09;96855.34;;;6.84;100.00
23303;BME280;11820;48.738;9.092;2024-02-21T07:45:35;96859.50;;;6.77;100.00
23303;BME280;11820;48.738;9.092;2024-02-21T07:48:00;96848.28;;;6.86;100.00
23303;BME280;11820;48.738;9.092;2024-02-21T07:50:26;96839.81;;;6.93;100.00
23303;BME280;11820;48.738;9.092;2024-02-21T07:52:51;96841.09;;;6.97;100.00
23303;BME280;11820;48.738;9.092;2024-02-21T07:55:17;96839.22;;;7.15;100.00
23303;BME280;11820;48.738;9.092;2024-02-21T07:57:42;96835.53;;;7.34;100.00
23303;BME280;11820;48.738;9.092;2024-02-21T08:00:08;96830.72;;;7.15;100.00
23303;BME280;11820;48.738;9.092;2024-02-21T08:02:42;96827.34;;;7.30;100.00
23303;BME280;11820;48.738;9.092;2024-02-21T08:05:09;96818.34;;;7.34;100.00
23303;BME280;11820;48.738;9.092;2024-02-21T08:07:34;96824.91;;;7.37;100.00
23303;BME280;11820;48.738;9.092;2024-02-21T08:09:59;96828.63;;;7.42;100.00
23303;BME280;11820;48.738;9.092;2024-02-21T08:12:25;96823.81;;;7.47;100.00
23303;BME280;11820;48.738;9.092;2024-02-21T08:14:50;96828.47;;;7.44;100.00
23303;BME280;11820;48.738;9.092;2024-02-21T08:17:15;96819.31;;;7.57;100.00
23303;BME280;11820;48.738;9.092;2024-02-21T08:19:40;96825.75;;;7.69;100.00
23303;BME280;11820;48.738;9.092;2024-02-21T08:22:06;96827.53;;;7.69;100.00
23303;BME280;11820;48.738;9.092;2024-02-21T08:24:32;96828.63;;;7.74;100.00
23303;BME280;11820;48.738;9.092;2024-02-21T08:26:57;96832.47;;;7.78;100.00
23303;BME280;11820;48.738;9.092;2024-02-21T08:29:22;96825.91;;;7.76;100.00
23303;BME280;11820;48.738;9.092;2024-02-21T08:31:48;96830.22;;;7.75;100.00
23303;BME280;11820;48.738;9.092;2024-02-21T08:34:13;96826.03;;;7.90;100.00
23303;BME280;11820;48.738;9.092;2024-02-21T08:36:39;96813.97;;;7.98;100.00
23303;BME280;11820;48.738;9.092;2024-02-21T08:39:04;96808.50;;;7.94;100.00
23303;BME280;11820;48.738;9.092;2024-02-21T08:41:33;96796.56;;;8.08;100.00
23303;BME280;11820;48.738;9.092;2024-02-21T08:43:59;96801.22;;;8.13;100.00
23303;BME280;11820;48.738;9.092;2024-02-21T08:46:24;96794.47;;;8.12;100.00
23303;BME280;11820;48.738;9.092;2024-02-21T08:48:51;96789.66;;;8.09;100.00
23303;BME280;11820;48.738;9.092;2024-02-21T08:51:17;96795.31;;;7.81;100.00
23303;BME280;11820;48.738;9.092;2024-02-21T08:53:43;96786.91;;;8.18;100.00
23303;BME280;11820;48.738;9.092;2024-02-21T08:56:09;96793.31;;;8.14;100.00
23303;BME280;11820;48.738;9.092;2024-02-21T08:58:35;96798.97;;;8.18;100.00
23303;BME280;11820;48.738;9.092;2024-02-21T09:01:02;96783.16;;;8.37;100.00
23303;BME280;11820;48.738;9.092;2024-02-21T09:03:28;96773.47;;;8.39;100.00
23303;BME280;11820;48.738;9.092;2024-02-21T09:05:55;96767.66;;;8.45;100.00
23303;BME280;11820;48.738;9.092;2024-02-21T09:08:21;96768.81;;;8.42;100.00
23303;BME280;11820;48.738;9.092;2024-02-21T09:10:47;96760.41;;;8.40;100.00
23303;BME280;11820;48.738;9.092;2024-02-21T09:13:12;96767.78;;;8.51;100.00
23303;BME280;11820;48.738;9.092;2024-02-21T09:15:37;96762.00;;;8.49;100.00
23303;BME280;11820;48.738;9.092;2024-02-21T09:18:03;96760.22;;;8.50;100.00
23303;BME280;11820;48.738;9.092;2024-02-21T09:20:28;96760.34;;;8.56;100.00
23303;BME280;11820;48.738;9.092;2024-02-21T09:22:54;96758.91;;;8.54;100.00
23303;BME280;11820;48.738;9.092;2024-02-21T09:25:19;96762.44;;;8.53;100.00
23303;BME280;11820;48.738;9.092;2024-02-21T09:27:45;96753.75;;;8.54;100.00
23303;BME280;11820;48.738;9.092;2024-02-21T09:30:11;96753.38;;;8.65;100.00
23303;BME280;11820;48.738;9.092;2024-02-21T09:32:37;96757.28;;;8.61;100.00
23303;BME280;11820;48.738;9.092;2024-02-21T09:35:03;96753.72;;;8.62;100.00
23303;BME280;11820;48.738;9.092;2024-02-21T09:37:30;96750.06;;;8.79;100.00
23303;BME280;11820;48.738;9.092;2024-02-21T09:39:55;96745.00;;;8.93;100.00
23303;BME280;11820;48.738;9.092;2024-02-21T09:42:21;96750.75;;;8.73;100.00
23303;BME280;11820;48.738;9.092;2024-02-21T09:44:47;96744.81;;;8.95;100.00
23303;BME280;11820;48.738;9.092;2024-02-21T09:47:19;96735.13;;;8.97;100.00
23303;BME280;11820;48.738;9.092;2024-02-21T09:49:47;96736.97;;;8.88;100.00
23303;BME280;11820;48.738;9.092;2024-02-21T09:52:14;96738.94;;;9.09;100.00
23303;BME280;11820;48.738;9.092;2024-02-21T09:54:40;96729.59;;;9.08;100.00
23303;BME280;11820;48.738;9.092;2024-02-21T09:57:09;96729.63;;;9.22;100.00
23303;BME280;11820;48.738;9.092;2024-02-21T09:59:35;96728.88;;;9.51;100.00
23303;BME280;11820;48.738;9.092;2024-02-21T10:02:00;96724.66;;;9.72;100.00
23303;BME280;11820;48.738;9.092;2024-02-21T10:04:26;96714.25;;;9.80;100.00
23303;BME280;11820;48.738;9.092;2024-02-21T10:06:53;96715.69;;;9.97;100.00
23303;BME280;11820;48.738;9.092;2024-02-21T10:11:48;96714.16;;;10.31;100.00
23303;BME280;11820;48.738;9.092;2024-02-21T10:14:15;96708.72;;;10.76;100.00
23303;BME280;11820;48.738;9.092;2024-02-21T10:16:40;96701.94;;;10.75;100.00
23303;BME280;11820;48.738;9.092;2024-02-21T10:19:06;96695.28;;;10.66;100.00
23303;BME280;11820;48.738;9.092;2024-02-21T10:21:32;96694.91;;;10.69;100.00
23303;BME280;11820;48.738;9.092;2024-02-21T10:23:57;96676.63;;;10.92;100.00
23303;BME280;11820;48.738;9.092;2024-02-21T10:26:23;96677.78;;;11.10;100.00
23303;BME280;11820;48.738;9.092;2024-02-21T10:28:48;96685.69;;;11.02;100.00
23303;BME280;11820;48.738;9.092;2024-02-21T10:31:26;96681.25;;;10.96;100.00
23303;BME280;11820;48.738;9.092;2024-02-21T10:34:01;96677.91;;;11.02;100.00
23303;BME280;11820;48.738;9.092;2024-02-21T10:36:30;96677.84;;;10.96;100.00
23303;BME280;11820;48.738;9.092;2024-02-21T10:38:56;96677.69;;;10.76;100.00
23303;BME280;11820;48.738;9.092;2024-02-21T10:41:22;96678.91;;;10.80;100.00
23303;BME280;11820;48.738;9.092;2024-02-21T10:43:52;96676.59;;;10.85;100.00
23303;BME280;11820;48.738;9.092;2024-02-21T10:46:22;96659.72;;;10.89;100.00
23303;BME280;11820;48.738;9.092;2024-02-21T10:48:59;96656.97;;;10.97;100.00
23303;BME280;11820;48.738;9.092;2024-02-21T10:51:31;96649.06;;;11.26;100.00
23303;BME280;11820;48.738;9.092;2024-02-21T10:54:03;96630.31;;;11.79;100.00
23303;BME280;11820;48.738;9.092;2024-02-21T10:56:34;96636.53;;;12.31;100.00
23303;BME280;11820;48.738;9.092;2024-02-21T10:59:03;96626.97;;;12.38;100.00
23303;BME280;11820;48.738;9.092;2024-02-21T11:01:29;96621.31;;;12.95;100.00
23303;BME280;11820;48.738;9.092;2024-02-21T11:04:01;96623.91;;;12.95;100.00
23303;BME280;11820;48.738;9.092;2024-02-21T11:06:27;96621.84;;;12.84;100.00
23303;BME280;11820;48.738;9.092;2024-02-21T11:09:06;96620.19;;;12.50;100.00
23303;BME280;11820;48.738;9.092;2024-02-21T11:11:44;96612.28;;;12.78;100.00
23303;BME280;11820;48.738;9.092;2024-02-21T11:14:11;96598.72;;;13.21;100.00
23303;BME280;11820;48.738;9.092;2024-02-21T11:16:42;96603.50;;;12.92;100.00
23303;BME280;11820;48.738;9.092;2024-02-21T11:19:29;96588.75;;;13.05;100.00
23303;BME280;11820;48.738;9.092;2024-02-21T11:21:57;96581.16;;;13.99;100.00
23303;BME280;11820;48.738;9.092;2024-02-21T11:24:33;96585.75;;;14.04;100.00
23303;BME280;11820;48.738;9.092;2024-02-21T11:27:27;96587.94;;;13.43;100.00
23303;BME280;11820;48.738;9.092;2024-02-21T11:29:57;96579.56;;;13.15;98.00
23303;BME280;11820;48.738;9.092;2024-02-21T11:32:25;96571.97;;;13.01;94.34
23303;BME280;11820;48.738;9.092;2024-02-21T11:34:58;96561.56;;;12.82;94.09
23303;BME280;11820;48.738;9.092;2024-02-21T11:37:34;96558.00;;;13.08;93.84
23303;BME280;11820;48.738;9.092;2024-02-21T11:40:00;96551.38;;;13.12;97.84
23303;BME280;11820;48.738;9.092;2024-02-21T11:42:29;96557.97;;;13.28;94.97
23303;BME280;11820;48.738;9.092;2024-02-21T11:44:56;96550.97;;;13.28;93.99
23303;BME280;11820;48.738;9.092;2024-02-21T11:47:24;96544.97;;;12.57;93.23
23303;BME280;11820;48.738;9.092;2024-02-21T11:49:50;96548.34;;;12.25;96.31
23303;BME280;11820;48.738;9.092;2024-02-21T11:52:22;96539.56;;;12.13;98.30
23303;BME280;11820;48.738;9.092;2024-02-21T11:54:50;96531.13;;;12.11;99.64
23303;BME280;11820;48.738;9.092;2024-02-21T11:57:17;96531.97;;;12.18;100.00
23303;BME280;11820;48.738;9.092;2024-02-21T11:59:42;96517.63;;;12.35;100.00
23303;BME280;11820;48.738;9.092;2024-02-21T12:02:09;96520.06;;;12.69;100.00
23303;BME280;11820;48.738;9.092;2024-02-21T12:04:36;96512.84;;;12.90;100.00
23303;BME280;11820;48.738;9.092;2024-02-21T12:07:01;96502.09;;;12.99;100.00
23303;BME280;11820;48.738;9.092;2024-02-21T12:09:28;96502.47;;;12.84;95.24
23303;BME280;11820;48.738;9.092;2024-02-21T12:11:58;96498.09;;;12.91;95.44
23303;BME280;11820;48.738;9.092;2024-02-21T12:14:25;96490.81;;;13.44;95.71
23303;BME280;11820;48.738;9.092;2024-02-21T12:16:50;96483.97;;;13.50;95.40
23303;BME280;11820;48.738;9.092;2024-02-21T12:19:15;96481.44;;;13.81;95.10
23303;BME280;11820;48.738;9.092;2024-02-21T12:21:42;96468.97;;;13.52;91.15
23303;BME280;11820;48.738;9.092;2024-02-21T12:24:24;96474.72;;;13.67;89.49
23303;BME280;11820;48.738;9.092;2024-02-21T12:26:50;96458.34;;;13.66;88.68
23303;BME280;11820;48.738;9.092;2024-02-21T12:29:17;96456.78;;;13.52;87.38
23303;BME280;11820;48.738;9.092;2024-02-21T12:31:42;96456.84;;;13.77;85.60
23303;BME280;11820;48.738;9.092;2024-02-21T12:34:08;96442.84;;;13.78;85.10
23303;BME280;11820;48.738;9.092;2024-02-21T12:36:36;96440.19;;;13.91;86.35
23303;BME280;11820;48.738;9.092;2024-02-21T12:39:05;96439.34;;;13.66;82.74
23303;BME280;11820;48.738;9.092;2024-02-21T12:41:31;96429.00;;;13.53;84.20
23303;BME280;11820;48.738;9.092;2024-02-21T12:43:58;96422.00;;;13.53;82.44
23303;BME280;11820;48.738;9.092;2024-02-21T12:46:23;96424.28;;;13.37;83.54
23303;BME280;11820;48.738;9.092;2024-02-21T12:48:50;96429.25;;;13.38;81.35
23303;BME280;11820;48.738;9.092;2024-02-21T12:51:15;96415.47;;;13.44;83.69
23303;BME280;11820;48.738;9.092;2024-02-21T12:53:41;96427.72;;;13.31;81.43
23303;BME280;11820;48.738;9.092;2024-02-21T12:56:06;96394.81;;;13.18;80.09
23303;BME280;11820;48.738;9.092;2024-02-21T12:58:32;96414.41;;;13.01;78.66
23303;BME280;11820;48.738;9.092;2024-02-21T13:00:58;96388.81;;;13.11;79.99